createdAt,value
2023-03-23T00:02:34.181Z,100.0
2023-03-23T00:22:34.203Z,100.0
2023-03-23T00:27:34.196Z,100.0
2023-03-23T00:52:34.231Z,100.0
2023-03-23T01:22:34.225Z,100.0
2023-03-23T01:27:34.225Z,100.0
2023-03-23T01:32:34.201Z,100.0
2023-03-23T01:42:34.218Z,100.0
2023-03-23T01:47:34.230Z,100.0
2023-03-23T01:52:34.218Z,100.0
2023-03-23T02:02:34.234Z,100.0
2023-03-23T02:07:34.232Z,100.0
2023-03-23T02:22:34.228Z,100.0
2023-03-23T02:37:34.239Z,100.0
2023-03-23T02:42:34.238Z,100.0
2023-03-23T03:17:34.226Z,100.0
2023-03-23T04:02:34.261Z,100.0
2023-03-23T04:07:34.427Z,100.0
2023-03-23T04:17:34.273Z,99.7
2023-03-23T04:47:34.288Z,98.7
2023-03-23T04:52:34.292Z,99.1
2023-03-23T04:57:34.271Z,99.1
2023-03-23T05:07:34.292Z,96.9
2023-03-23T05:22:34.295Z,94.7
2023-03-23T05:27:34.278Z,95.0
2023-03-23T05:37:34.294Z,93.8
2023-03-23T05:52:34.286Z,92.7
2023-03-23T05:57:34.290Z,92.6
2023-03-23T06:02:34.325Z,92.7
2023-03-23T06:17:34.290Z,93.2
2023-03-23T06:22:34.294Z,93.9
2023-03-23T06:27:34.301Z,94.1
2023-03-23T06:32:34.296Z,93.1
2023-03-23T06:47:34.328Z,91.2
2023-03-23T06:57:34.312Z,91.1
2023-03-23T07:02:34.316Z,90.7
2023-03-23T07:07:34.325Z,91.2
2023-03-23T07:22:34.307Z,90.5
2023-03-23T07:32:34.341Z,92.3
2023-03-23T07:47:34.418Z,88.9
2023-03-23T07:52:34.334Z,88.3
2023-03-23T08:02:35.179Z,90.4
2023-03-23T08:07:34.328Z,89.7
2023-03-23T08:12:34.357Z,91.9
2023-03-23T08:17:34.351Z,98.6
2023-03-23T08:27:34.324Z,100.0
2023-03-23T08:37:34.350Z,100.0
2023-03-23T08:42:34.528Z,98.8
2023-03-23T08:47:34.343Z,97.2
2023-03-23T08:52:34.350Z,93.9
2023-03-23T08:57:34.353Z,93.8
2023-03-23T09:02:34.346Z,90.2
2023-03-23T09:07:34.334Z,90.1
2023-03-23T09:12:34.344Z,89.6
2023-03-23T09:17:34.363Z,89.8
2023-03-23T09:22:34.348Z,89.2
2023-03-23T09:27:34.361Z,86.0
2023-03-23T09:32:34.382Z,86.0
2023-03-23T09:37:34.389Z,82.8
2023-03-23T09:42:34.377Z,80.5
2023-03-23T09:47:34.377Z,81.9
2023-03-23T09:52:34.383Z,78.4
2023-03-23T09:57:34.359Z,79.4
2023-03-23T10:02:34.397Z,78.0
2023-03-23T10:07:34.374Z,75.3
2023-03-23T10:12:34.381Z,65.4
2023-03-23T10:17:34.465Z,57.9
2023-03-23T10:22:34.397Z,55.2
2023-03-23T10:27:34.390Z,57.0
2023-03-23T10:32:34.421Z,53.4
2023-03-23T10:37:34.413Z,53.4
2023-03-23T10:42:34.472Z,54.8
2023-03-23T10:47:34.472Z,52.3
2023-03-23T10:52:34.401Z,58.2
2023-03-23T10:57:34.368Z,56.9
2023-03-23T11:02:34.397Z,53.6
2023-03-23T11:07:34.407Z,52.4
2023-03-23T11:12:34.390Z,50.2
2023-03-23T11:17:34.395Z,57.8
2023-03-23T11:22:34.404Z,52.7
2023-03-23T11:27:34.401Z,50.8
2023-03-23T11:32:34.420Z,48.7
2023-03-23T11:37:34.387Z,45.4
2023-03-23T11:42:34.404Z,46.4
2023-03-23T11:47:34.428Z,49.5
2023-03-23T11:52:34.423Z,49.6
2023-03-23T11:57:34.400Z,57.0
2023-03-23T12:02:34.417Z,60.1
2023-03-23T12:07:34.419Z,58.3
2023-03-23T12:12:34.418Z,64.8
2023-03-23T12:17:34.413Z,72.5
2023-03-23T12:22:34.397Z,73.3
2023-03-23T12:27:34.415Z,66.6
2023-03-23T12:32:34.442Z,65.0
2023-03-23T12:37:34.416Z,61.5
2023-03-23T12:42:34.429Z,54.4
2023-03-23T12:47:34.434Z,49.5
2023-03-23T12:52:34.423Z,49.4
2023-03-23T12:57:34.431Z,48.9
2023-03-23T13:02:34.425Z,52.4
2023-03-23T13:07:34.442Z,53.2
2023-03-23T13:12:34.448Z,56.1
2023-03-23T13:17:34.440Z,60.0
2023-03-23T13:22:34.431Z,82.3
2023-03-23T13:27:34.426Z,100.0
2023-03-23T13:32:34.546Z,100.0
2023-03-23T13:37:35.548Z,100.0
2023-03-23T13:42:34.448Z,100.0
2023-03-23T13:47:34.431Z,99.8
2023-03-23T13:57:34.451Z,98.6
2023-03-23T14:02:34.464Z,99.4
2023-03-23T14:07:34.463Z,100.0
2023-03-23T14:12:34.474Z,96.9
2023-03-23T14:17:34.458Z,98.9
2023-03-23T14:22:34.483Z,99.6
2023-03-23T14:27:34.452Z,97.6
2023-03-23T14:32:34.496Z,99.2
2023-03-23T14:37:34.455Z,97.5
2023-03-23T14:42:34.452Z,97.2
2023-03-23T14:47:34.450Z,88.6
2023-03-23T14:52:34.480Z,73.6
2023-03-23T14:57:34.469Z,62.0
2023-03-23T15:02:34.487Z,58.8
2023-03-23T15:07:34.447Z,55.1
2023-03-23T15:12:34.477Z,59.5
2023-03-23T15:17:34.489Z,55.2
2023-03-23T15:22:34.467Z,51.5
2023-03-23T15:27:34.465Z,52.0
2023-03-23T15:32:35.497Z,52.5
2023-03-23T15:37:34.507Z,61.1
2023-03-23T15:42:34.474Z,69.3
2023-03-23T15:47:34.493Z,57.6
2023-03-23T15:52:34.481Z,66.3
2023-03-23T15:57:34.482Z,63.5
2023-03-23T16:02:34.584Z,61.3
2023-03-23T16:07:34.475Z,56.3
2023-03-23T16:12:34.473Z,63.6
2023-03-23T16:17:34.571Z,66.2
2023-03-23T16:22:34.504Z,68.1
2023-03-23T16:27:34.496Z,68.6
2023-03-23T16:37:34.504Z,69.7
2023-03-23T16:42:34.501Z,69.7
2023-03-23T16:47:34.562Z,69.8
2023-03-23T16:52:34.497Z,73.8
2023-03-23T16:57:34.525Z,76.2
2023-03-23T17:02:34.608Z,75.5
2023-03-23T17:07:34.508Z,74.9
2023-03-23T17:12:34.508Z,75.6
2023-03-23T17:17:34.567Z,77.0
2023-03-23T17:22:34.538Z,77.0
2023-03-23T17:27:34.523Z,75.2
2023-03-23T17:32:34.526Z,75.0
2023-03-23T17:37:34.559Z,75.6
2023-03-23T17:52:34.526Z,79.3
2023-03-23T17:57:34.515Z,80.4
2023-03-23T18:02:34.621Z,81.2
2023-03-23T18:07:34.532Z,82.6
2023-03-23T18:12:34.519Z,84.0
2023-03-23T18:17:34.560Z,85.1
2023-03-23T18:22:34.550Z,84.5
2023-03-23T18:27:34.546Z,83.7
2023-03-23T18:37:34.559Z,84.2
2023-03-23T18:42:34.568Z,84.4
2023-03-23T18:47:34.625Z,84.7
2023-03-23T19:07:34.565Z,85.5
2023-03-23T19:12:34.556Z,85.5
2023-03-23T19:17:34.573Z,85.7
2023-03-23T19:22:34.574Z,85.3
2023-03-23T19:27:47.417Z,84.8
2023-03-23T19:32:34.589Z,84.5
2023-03-23T19:37:34.940Z,84.7
2023-03-23T19:42:34.577Z,84.7
2023-03-23T19:52:35.297Z,83.6
2023-03-23T20:17:34.611Z,83.2
2023-03-23T20:22:34.593Z,82.5
2023-03-23T20:27:34.595Z,81.2
2023-03-23T20:32:34.649Z,81.1
2023-03-23T20:37:34.629Z,82.2
2023-03-23T20:42:34.602Z,85.6
2023-03-23T20:47:34.597Z,89.4
2023-03-23T20:57:34.595Z,96.8
2023-03-23T21:02:34.627Z,98.5
2023-03-23T21:07:34.614Z,100.0
2023-03-23T21:12:34.600Z,100.0
2023-03-23T21:22:34.610Z,100.0
2023-03-23T21:27:34.599Z,100.0
2023-03-23T21:32:34.615Z,100.0
2023-03-23T21:52:34.604Z,100.0
2023-03-23T22:12:34.606Z,100.0
2023-03-23T22:17:34.614Z,100.0
2023-03-23T22:22:34.610Z,100.0
2023-03-23T22:37:34.625Z,100.0
2023-03-23T22:47:34.647Z,100.0
2023-03-23T22:52:34.616Z,100.0
2023-03-23T23:07:34.635Z,100.0
2023-03-23T23:12:34.633Z,100.0
2023-03-23T23:17:35.009Z,100.0
2023-03-23T23:37:34.660Z,100.0
2023-03-23T23:52:34.658Z,100.0
2023-03-23T23:57:34.660Z,100.0
